sensor_id;sensor_type;location;lat;lon;timestamp;P1;durP1;ratioP1;P2;durP2;ratioP2
48685;SDS011;34485;51.536;3.816;2023-08-31T00:01:48;4.57;;;4.17;;
48685;SDS011;34485;51.536;3.816;2023-08-31T00:04:14;5.65;;;4.53;;
48685;SDS011;34485;51.536;3.816;2023-08-31T00:06:40;6.17;;;4.53;;
48685;SDS011;34485;51.536;3.816;2023-08-31T00:09:06;6.90;;;4.20;;
48685;SDS011;34485;51.536;3.816;2023-08-31T00:11:34;5.93;;;4.55;;
48685;SDS011;34485;51.536;3.816;2023-08-31T00:14:00;5.68;;;5.03;;
48685;SDS011;34485;51.536;3.816;2023-08-31T00:16:26;8.60;;;5.70;;
48685;SDS011;34485;51.536;3.816;2023-08-31T00:18:52;7.13;;;5.07;;
48685;SDS011;34485;51.536;3.816;2023-08-31T00:21:19;16.02;;;6.07;;
48685;SDS011;34485;51.536;3.816;2023-08-31T00:23:46;14.10;;;5.40;;
48685;SDS011;34485;51.536;3.816;2023-08-31T00:26:11;9.38;;;5.55;;
48685;SDS011;34485;51.536;3.816;2023-08-31T00:28:37;10.33;;;6.00;;
48685;SDS011;34485;51.536;3.816;2023-08-31T00:31:03;6.57;;;5.95;;
48685;SDS011;34485;51.536;3.816;2023-08-31T00:33:29;8.27;;;5.38;;
48685;SDS011;34485;51.536;3.816;2023-08-31T00:35:55;12.77;;;6.07;;
48685;SDS011;34485;51.536;3.816;2023-08-31T00:38:26;9.02;;;6.13;;
48685;SDS011;34485;51.536;3.816;2023-08-31T00:40:52;8.60;;;6.20;;
48685;SDS011;34485;51.536;3.816;2023-08-31T00:43:19;8.75;;;6.40;;
48685;SDS011;34485;51.536;3.816;2023-08-31T00:45:45;6.28;;;5.75;;
48685;SDS011;34485;51.536;3.816;2023-08-31T00:48:17;8.97;;;5.37;;
48685;SDS011;34485;51.536;3.816;2023-08-31T00:50:46;6.45;;;5.60;;
48685;SDS011;34485;51.536;3.816;2023-08-31T00:53:13;9.30;;;5.97;;
48685;SDS011;34485;51.536;3.816;2023-08-31T00:55:39;9.27;;;4.60;;
48685;SDS011;34485;51.536;3.816;2023-08-31T00:58:07;10.27;;;5.72;;
48685;SDS011;34485;51.536;3.816;2023-08-31T01:00:40;11.57;;;5.00;;
48685;SDS011;34485;51.536;3.816;2023-08-31T01:07:00;12.93;;;5.90;;
48685;SDS011;34485;51.536;3.816;2023-08-31T01:09:10;6.20;;;5.60;;
48685;SDS011;34485;51.536;3.816;2023-08-31T01:12:02;7.50;;;5.28;;
48685;SDS011;34485;51.536;3.816;2023-08-31T01:17:20;8.20;;;5.78;;
48685;SDS011;34485;51.536;3.816;2023-08-31T01:19:57;16.27;;;6.18;;
48685;SDS011;34485;51.536;3.816;2023-08-31T01:25:12;6.57;;;5.85;;
48685;SDS011;34485;51.536;3.816;2023-08-31T01:27:38;8.95;;;6.45;;
48685;SDS011;34485;51.536;3.816;2023-08-31T01:30:05;7.20;;;5.80;;
48685;SDS011;34485;51.536;3.816;2023-08-31T01:32:31;13.27;;;5.10;;
48685;SDS011;34485;51.536;3.816;2023-08-31T01:34:57;7.30;;;5.53;;
48685;SDS011;34485;51.536;3.816;2023-08-31T01:37:26;8.65;;;6.03;;
48685;SDS011;34485;51.536;3.816;2023-08-31T01:40:06;12.93;;;6.10;;
48685;SDS011;34485;51.536;3.816;2023-08-31T01:42:36;5.93;;;5.32;;
48685;SDS011;34485;51.536;3.816;2023-08-31T01:45:02;6.13;;;5.37;;
48685;SDS011;34485;51.536;3.816;2023-08-31T01:47:30;8.07;;;5.07;;
48685;SDS011;34485;51.536;3.816;2023-08-31T01:49:56;7.40;;;5.60;;
48685;SDS011;34485;51.536;3.816;2023-08-31T01:52:22;5.33;;;4.50;;
48685;SDS011;34485;51.536;3.816;2023-08-31T01:54:47;8.80;;;5.00;;
48685;SDS011;34485;51.536;3.816;2023-08-31T01:57:13;10.83;;;4.43;;
48685;SDS011;34485;51.536;3.816;2023-08-31T01:59:39;7.80;;;4.88;;
48685;SDS011;34485;51.536;3.816;2023-08-31T02:02:04;6.37;;;4.40;;
48685;SDS011;34485;51.536;3.816;2023-08-31T02:04:30;7.55;;;4.97;;
48685;SDS011;34485;51.536;3.816;2023-08-31T02:06:56;9.30;;;5.13;;
48685;SDS011;34485;51.536;3.816;2023-08-31T02:09:22;7.25;;;4.18;;
48685;SDS011;34485;51.536;3.816;2023-08-31T02:11:47;12.05;;;5.22;;
48685;SDS011;34485;51.536;3.816;2023-08-31T02:14:13;6.40;;;5.87;;
48685;SDS011;34485;51.536;3.816;2023-08-31T02:16:39;10.67;;;4.97;;
48685;SDS011;34485;51.536;3.816;2023-08-31T02:19:04;6.03;;;5.37;;
48685;SDS011;34485;51.536;3.816;2023-08-31T02:21:30;5.90;;;5.40;;
48685;SDS011;34485;51.536;3.816;2023-08-31T02:23:56;7.35;;;5.55;;
48685;SDS011;34485;51.536;3.816;2023-08-31T02:26:21;7.60;;;5.30;;
48685;SDS011;34485;51.536;3.816;2023-08-31T02:29:07;8.13;;;4.72;;
48685;SDS011;34485;51.536;3.816;2023-08-31T02:31:32;11.93;;;5.07;;
48685;SDS011;34485;51.536;3.816;2023-08-31T02:33:58;5.85;;;5.35;;
48685;SDS011;34485;51.536;3.816;2023-08-31T02:36:24;7.70;;;5.53;;
48685;SDS011;34485;51.536;3.816;2023-08-31T02:38:49;7.10;;;5.00;;
48685;SDS011;34485;51.536;3.816;2023-08-31T02:41:15;6.57;;;5.10;;
48685;SDS011;34485;51.536;3.816;2023-08-31T02:43:42;12.30;;;6.40;;
48685;SDS011;34485;51.536;3.816;2023-08-31T02:46:07;7.72;;;5.43;;
48685;SDS011;34485;51.536;3.816;2023-08-31T02:48:33;9.03;;;5.17;;
48685;SDS011;34485;51.536;3.816;2023-08-31T02:50:59;7.13;;;4.87;;
48685;SDS011;34485;51.536;3.816;2023-08-31T02:53:31;6.57;;;5.40;;
48685;SDS011;34485;51.536;3.816;2023-08-31T02:55:56;7.18;;;5.20;;
48685;SDS011;34485;51.536;3.816;2023-08-31T02:58:22;5.82;;;5.22;;
48685;SDS011;34485;51.536;3.816;2023-08-31T03:00:48;7.13;;;5.50;;
48685;SDS011;34485;51.536;3.816;2023-08-31T03:03:15;9.20;;;5.80;;
48685;SDS011;34485;51.536;3.816;2023-08-31T03:05:40;10.17;;;5.87;;
48685;SDS011;34485;51.536;3.816;2023-08-31T03:08:06;16.58;;;6.03;;
48685;SDS011;34485;51.536;3.816;2023-08-31T03:10:32;6.23;;;5.63;;
48685;SDS011;34485;51.536;3.816;2023-08-31T03:12:57;12.40;;;6.15;;
48685;SDS011;34485;51.536;3.816;2023-08-31T03:15:23;16.80;;;5.77;;
48685;SDS011;34485;51.536;3.816;2023-08-31T03:17:48;9.07;;;5.70;;
48685;SDS011;34485;51.536;3.816;2023-08-31T03:20:14;10.40;;;5.78;;
48685;SDS011;34485;51.536;3.816;2023-08-31T03:22:40;7.37;;;4.67;;
48685;SDS011;34485;51.536;3.816;2023-08-31T03:25:06;22.35;;;6.10;;
48685;SDS011;34485;51.536;3.816;2023-08-31T03:27:32;9.38;;;6.68;;
48685;SDS011;34485;51.536;3.816;2023-08-31T03:29:57;9.40;;;5.60;;
48685;SDS011;34485;51.536;3.816;2023-08-31T03:32:23;8.27;;;6.20;;
48685;SDS011;34485;51.536;3.816;2023-08-31T03:34:48;11.25;;;6.50;;
48685;SDS011;34485;51.536;3.816;2023-08-31T03:37:15;7.07;;;6.37;;
48685;SDS011;34485;51.536;3.816;2023-08-31T03:39:40;12.35;;;5.32;;
48685;SDS011;34485;51.536;3.816;2023-08-31T03:42:07;7.80;;;6.15;;
48685;SDS011;34485;51.536;3.816;2023-08-31T03:44:34;7.10;;;5.35;;
48685;SDS011;34485;51.536;3.816;2023-08-31T03:47:00;7.47;;;5.83;;
48685;SDS011;34485;51.536;3.816;2023-08-31T03:49:26;9.85;;;5.82;;
48685;SDS011;34485;51.536;3.816;2023-08-31T03:51:52;10.97;;;5.33;;
48685;SDS011;34485;51.536;3.816;2023-08-31T03:54:18;5.88;;;5.30;;
48685;SDS011;34485;51.536;3.816;2023-08-31T03:56:44;12.40;;;6.70;;
48685;SDS011;34485;51.536;3.816;2023-08-31T03:59:10;8.57;;;5.07;;
48685;SDS011;34485;51.536;3.816;2023-08-31T04:01:36;12.52;;;5.22;;
48685;SDS011;34485;51.536;3.816;2023-08-31T04:04:01;8.47;;;5.73;;
48685;SDS011;34485;51.536;3.816;2023-08-31T04:06:27;8.73;;;5.00;;
48685;SDS011;34485;51.536;3.816;2023-08-31T04:08:53;9.57;;;5.73;;
48685;SDS011;34485;51.536;3.816;2023-08-31T04:11:19;9.60;;;5.72;;
48685;SDS011;34485;51.536;3.816;2023-08-31T04:13:45;10.52;;;5.25;;
48685;SDS011;34485;51.536;3.816;2023-08-31T04:16:11;10.17;;;5.20;;
48685;SDS011;34485;51.536;3.816;2023-08-31T04:18:37;8.55;;;5.93;;
48685;SDS011;34485;51.536;3.816;2023-08-31T04:21:02;9.23;;;6.03;;
48685;SDS011;34485;51.536;3.816;2023-08-31T04:23:28;8.15;;;5.18;;
48685;SDS011;34485;51.536;3.816;2023-08-31T04:25:54;8.90;;;5.93;;
48685;SDS011;34485;51.536;3.816;2023-08-31T04:28:21;6.28;;;5.45;;
48685;SDS011;34485;51.536;3.816;2023-08-31T04:30:46;14.65;;;6.03;;
48685;SDS011;34485;51.536;3.816;2023-08-31T04:33:12;8.60;;;6.27;;
48685;SDS011;34485;51.536;3.816;2023-08-31T04:35:38;9.48;;;6.60;;
48685;SDS011;34485;51.536;3.816;2023-08-31T04:38:03;10.77;;;6.50;;
48685;SDS011;34485;51.536;3.816;2023-08-31T04:40:29;16.23;;;6.63;;
48685;SDS011;34485;51.536;3.816;2023-08-31T04:42:54;17.52;;;6.95;;
48685;SDS011;34485;51.536;3.816;2023-08-31T04:45:20;9.00;;;6.30;;
48685;SDS011;34485;51.536;3.816;2023-08-31T04:47:46;9.90;;;7.03;;
48685;SDS011;34485;51.536;3.816;2023-08-31T04:50:11;15.17;;;6.97;;
48685;SDS011;34485;51.536;3.816;2023-08-31T04:52:37;12.83;;;6.83;;
48685;SDS011;34485;51.536;3.816;2023-08-31T04:55:06;16.23;;;7.40;;
48685;SDS011;34485;51.536;3.816;2023-08-31T04:57:38;12.07;;;7.85;;
48685;SDS011;34485;51.536;3.816;2023-08-31T05:00:04;12.23;;;7.15;;
48685;SDS011;34485;51.536;3.816;2023-08-31T05:02:34;9.77;;;6.37;;
48685;SDS011;34485;51.536;3.816;2023-08-31T05:04:59;10.63;;;6.57;;
48685;SDS011;34485;51.536;3.816;2023-08-31T05:07:25;9.37;;;6.97;;
48685;SDS011;34485;51.536;3.816;2023-08-31T05:09:50;9.10;;;7.03;;
48685;SDS011;34485;51.536;3.816;2023-08-31T05:12:16;9.30;;;5.80;;
48685;SDS011;34485;51.536;3.816;2023-08-31T05:14:42;14.52;;;6.53;;
48685;SDS011;34485;51.536;3.816;2023-08-31T05:17:08;11.47;;;7.13;;
48685;SDS011;34485;51.536;3.816;2023-08-31T05:19:34;10.77;;;6.72;;
48685;SDS011;34485;51.536;3.816;2023-08-31T05:21:59;14.83;;;7.73;;
48685;SDS011;34485;51.536;3.816;2023-08-31T05:24:25;9.82;;;7.18;;
48685;SDS011;34485;51.536;3.816;2023-08-31T05:26:51;12.53;;;7.27;;
48685;SDS011;34485;51.536;3.816;2023-08-31T05:29:16;12.77;;;6.55;;
48685;SDS011;34485;51.536;3.816;2023-08-31T05:31:42;17.43;;;8.47;;
48685;SDS011;34485;51.536;3.816;2023-08-31T05:34:09;11.15;;;8.13;;
48685;SDS011;34485;51.536;3.816;2023-08-31T05:36:35;17.33;;;7.80;;
48685;SDS011;34485;51.536;3.816;2023-08-31T05:39:01;12.27;;;8.43;;
48685;SDS011;34485;51.536;3.816;2023-08-31T05:41:27;19.20;;;9.27;;
48685;SDS011;34485;51.536;3.816;2023-08-31T05:43:53;15.03;;;8.63;;
48685;SDS011;34485;51.536;3.816;2023-08-31T05:46:19;14.13;;;7.88;;
48685;SDS011;34485;51.536;3.816;2023-08-31T05:48:44;13.07;;;7.17;;
48685;SDS011;34485;51.536;3.816;2023-08-31T05:51:10;11.18;;;7.95;;
48685;SDS011;34485;51.536;3.816;2023-08-31T05:53:35;17.17;;;7.93;;
48685;SDS011;34485;51.536;3.816;2023-08-31T05:56:02;11.80;;;8.45;;
48685;SDS011;34485;51.536;3.816;2023-08-31T05:58:32;9.70;;;7.72;;
48685;SDS011;34485;51.536;3.816;2023-08-31T06:00:58;21.40;;;8.50;;
48685;SDS011;34485;51.536;3.816;2023-08-31T06:03:25;13.40;;;8.03;;
48685;SDS011;34485;51.536;3.816;2023-08-31T06:05:51;18.05;;;7.97;;
48685;SDS011;34485;51.536;3.816;2023-08-31T06:08:17;13.52;;;7.90;;
48685;SDS011;34485;51.536;3.816;2023-08-31T06:10:42;17.43;;;8.40;;
48685;SDS011;34485;51.536;3.816;2023-08-31T06:13:08;10.32;;;7.68;;
48685;SDS011;34485;51.536;3.816;2023-08-31T06:15:34;16.10;;;8.27;;
48685;SDS011;34485;51.536;3.816;2023-08-31T06:17:59;13.98;;;8.30;;
48685;SDS011;34485;51.536;3.816;2023-08-31T06:20:25;12.70;;;7.93;;
48685;SDS011;34485;51.536;3.816;2023-08-31T06:22:50;17.10;;;8.33;;
48685;SDS011;34485;51.536;3.816;2023-08-31T06:25:16;14.63;;;8.18;;
48685;SDS011;34485;51.536;3.816;2023-08-31T06:27:43;12.05;;;7.60;;
48685;SDS011;34485;51.536;3.816;2023-08-31T06:30:09;11.50;;;6.97;;
48685;SDS011;34485;51.536;3.816;2023-08-31T06:32:43;23.77;;;9.15;;
48685;SDS011;34485;51.536;3.816;2023-08-31T06:35:13;17.65;;;8.13;;
48685;SDS011;34485;51.536;3.816;2023-08-31T06:37:40;22.20;;;8.77;;
48685;SDS011;34485;51.536;3.816;2023-08-31T06:40:06;14.20;;;7.30;;
48685;SDS011;34485;51.536;3.816;2023-08-31T06:42:33;13.53;;;7.60;;
48685;SDS011;34485;51.536;3.816;2023-08-31T06:45:00;19.50;;;8.25;;
48685;SDS011;34485;51.536;3.816;2023-08-31T06:47:26;15.10;;;6.68;;
48685;SDS011;34485;51.536;3.816;2023-08-31T06:49:51;11.03;;;7.70;;
48685;SDS011;34485;51.536;3.816;2023-08-31T06:52:17;19.08;;;8.60;;
48685;SDS011;34485;51.536;3.816;2023-08-31T06:54:43;15.85;;;7.82;;
48685;SDS011;34485;51.536;3.816;2023-08-31T06:57:09;12.67;;;7.93;;
48685;SDS011;34485;51.536;3.816;2023-08-31T06:59:34;17.87;;;7.27;;
48685;SDS011;34485;51.536;3.816;2023-08-31T07:02:00;12.65;;;7.53;;
48685;SDS011;34485;51.536;3.816;2023-08-31T07:04:28;17.80;;;7.77;;
48685;SDS011;34485;51.536;3.816;2023-08-31T07:06:54;15.68;;;7.28;;
48685;SDS011;34485;51.536;3.816;2023-08-31T07:09:19;8.33;;;7.27;;
48685;SDS011;34485;51.536;3.816;2023-08-31T07:11:45;14.82;;;8.80;;
48685;SDS011;34485;51.536;3.816;2023-08-31T07:14:11;11.47;;;8.00;;
48685;SDS011;34485;51.536;3.816;2023-08-31T07:16:36;16.83;;;9.47;;
48685;SDS011;34485;51.536;3.816;2023-08-31T07:19:02;18.95;;;10.93;;
48685;SDS011;34485;51.536;3.816;2023-08-31T07:21:27;22.23;;;10.30;;
48685;SDS011;34485;51.536;3.816;2023-08-31T07:23:53;17.00;;;12.55;;
48685;SDS011;34485;51.536;3.816;2023-08-31T07:26:19;22.40;;;12.75;;
48685;SDS011;34485;51.536;3.816;2023-08-31T07:28:46;20.60;;;11.77;;
48685;SDS011;34485;51.536;3.816;2023-08-31T07:31:12;14.47;;;9.17;;
48685;SDS011;34485;51.536;3.816;2023-08-31T07:33:38;10.40;;;6.95;;
48685;SDS011;34485;51.536;3.816;2023-08-31T07:36:04;11.02;;;6.22;;
48685;SDS011;34485;51.536;3.816;2023-08-31T07:38:31;11.37;;;5.03;;
48685;SDS011;34485;51.536;3.816;2023-08-31T07:40:58;7.63;;;4.38;;
48685;SDS011;34485;51.536;3.816;2023-08-31T07:43:24;6.97;;;3.95;;
48685;SDS011;34485;51.536;3.816;2023-08-31T07:45:50;3.50;;;3.20;;
48685;SDS011;34485;51.536;3.816;2023-08-31T07:48:17;6.57;;;3.10;;
48685;SDS011;34485;51.536;3.816;2023-08-31T07:50:42;8.13;;;3.42;;
48685;SDS011;34485;51.536;3.816;2023-08-31T07:53:08;5.93;;;3.57;;
48685;SDS011;34485;51.536;3.816;2023-08-31T07:55:34;10.57;;;3.40;;
48685;SDS011;34485;51.536;3.816;2023-08-31T07:58:00;7.45;;;3.35;;
48685;SDS011;34485;51.536;3.816;2023-08-31T08:00:26;12.53;;;3.23;;
48685;SDS011;34485;51.536;3.816;2023-08-31T08:02:52;4.55;;;3.17;;
48685;SDS011;34485;51.536;3.816;2023-08-31T08:05:17;5.33;;;2.87;;
48685;SDS011;34485;51.536;3.816;2023-08-31T08:07:43;3.10;;;2.50;;
48685;SDS011;34485;51.536;3.816;2023-08-31T08:10:09;4.90;;;2.80;;
48685;SDS011;34485;51.536;3.816;2023-08-31T08:12:39;8.02;;;3.25;;
48685;SDS011;34485;51.536;3.816;2023-08-31T08:15:06;3.17;;;2.33;;
48685;SDS011;34485;51.536;3.816;2023-08-31T08:17:33;3.10;;;2.80;;
48685;SDS011;34485;51.536;3.816;2023-08-31T08:19:58;3.25;;;2.25;;
48685;SDS011;34485;51.536;3.816;2023-08-31T08:22:24;4.43;;;2.80;;
48685;SDS011;34485;51.536;3.816;2023-08-31T08:24:50;4.28;;;2.72;;
48685;SDS011;34485;51.536;3.816;2023-08-31T08:27:16;5.53;;;2.80;;
48685;SDS011;34485;51.536;3.816;2023-08-31T08:29:43;2.73;;;2.53;;
48685;SDS011;34485;51.536;3.816;2023-08-31T08:32:10;5.18;;;2.83;;
48685;SDS011;34485;51.536;3.816;2023-08-31T08:34:36;2.70;;;2.50;;
48685;SDS011;34485;51.536;3.816;2023-08-31T08:37:01;3.90;;;2.93;;
48685;SDS011;34485;51.536;3.816;2023-08-31T08:39:28;4.07;;;2.70;;
48685;SDS011;34485;51.536;3.816;2023-08-31T08:41:54;7.25;;;2.60;;
48685;SDS011;34485;51.536;3.816;2023-08-31T08:44:23;7.38;;;3.20;;
48685;SDS011;34485;51.536;3.816;2023-08-31T08:46:50;3.20;;;2.90;;
48685;SDS011;34485;51.536;3.816;2023-08-31T08:49:16;5.10;;;3.13;;
48685;SDS011;34485;51.536;3.816;2023-08-31T08:51:43;4.05;;;2.78;;
48685;SDS011;34485;51.536;3.816;2023-08-31T08:54:12;4.95;;;2.95;;
48685;SDS011;34485;51.536;3.816;2023-08-31T08:56:38;4.40;;;2.70;;
48685;SDS011;34485;51.536;3.816;2023-08-31T08:59:04;6.40;;;2.80;;
48685;SDS011;34485;51.536;3.816;2023-08-31T09:01:30;2.80;;;2.60;;
48685;SDS011;34485;51.536;3.816;2023-08-31T09:03:57;4.00;;;2.67;;
48685;SDS011;34485;51.536;3.816;2023-08-31T09:06:23;3.27;;;2.97;;
48685;SDS011;34485;51.536;3.816;2023-08-31T09:08:55;5.78;;;3.30;;
48685;SDS011;34485;51.536;3.816;2023-08-31T09:11:21;2.90;;;2.70;;
48685;SDS011;34485;51.536;3.816;2023-08-31T09:13:48;4.83;;;2.80;;
48685;SDS011;34485;51.536;3.816;2023-08-31T09:16:25;5.20;;;2.95;;
48685;SDS011;34485;51.536;3.816;2023-08-31T09:18:51;3.25;;;2.67;;
48685;SDS011;34485;51.536;3.816;2023-08-31T09:21:17;4.65;;;3.13;;
48685;SDS011;34485;51.536;3.816;2023-08-31T09:23:47;5.25;;;3.10;;
48685;SDS011;34485;51.536;3.816;2023-08-31T09:26:21;3.83;;;2.37;;
48685;SDS011;34485;51.536;3.816;2023-08-31T09:28:46;4.38;;;2.55;;
48685;SDS011;34485;51.536;3.816;2023-08-31T09:31:13;5.28;;;2.90;;
48685;SDS011;34485;51.536;3.816;2023-08-31T09:33:39;3.10;;;2.03;;
48685;SDS011;34485;51.536;3.816;2023-08-31T09:36:17;3.05;;;2.20;;
48685;SDS011;34485;51.536;3.816;2023-08-31T09:38:45;4.22;;;3.00;;
48685;SDS011;34485;51.536;3.816;2023-08-31T09:41:11;6.17;;;2.73;;
48685;SDS011;34485;51.536;3.816;2023-08-31T09:43:36;6.73;;;2.77;;
48685;SDS011;34485;51.536;3.816;2023-08-31T09:46:03;3.28;;;2.15;;
48685;SDS011;34485;51.536;3.816;2023-08-31T09:48:29;3.33;;;1.83;;
48685;SDS011;34485;51.536;3.816;2023-08-31T09:50:56;3.60;;;1.70;;
48685;SDS011;34485;51.536;3.816;2023-08-31T09:53:23;8.35;;;1.70;;
48685;SDS011;34485;51.536;3.816;2023-08-31T09:55:50;5.25;;;2.38;;
48685;SDS011;34485;51.536;3.816;2023-08-31T09:58:17;2.20;;;2.00;;
48685;SDS011;34485;51.536;3.816;2023-08-31T10:00:48;4.13;;;2.10;;
48685;SDS011;34485;51.536;3.816;2023-08-31T10:03:15;2.55;;;1.90;;
48685;SDS011;34485;51.536;3.816;2023-08-31T10:05:45;7.35;;;2.50;;
48685;SDS011;34485;51.536;3.816;2023-08-31T10:08:12;5.07;;;2.63;;
48685;SDS011;34485;51.536;3.816;2023-08-31T10:10:39;4.55;;;2.78;;
48685;SDS011;34485;51.536;3.816;2023-08-31T10:13:05;3.47;;;2.33;;
48685;SDS011;34485;51.536;3.816;2023-08-31T10:15:32;3.92;;;2.30;;
48685;SDS011;34485;51.536;3.816;2023-08-31T10:17:59;2.67;;;2.13;;
48685;SDS011;34485;51.536;3.816;2023-08-31T10:20:26;5.53;;;1.90;;
48685;SDS011;34485;51.536;3.816;2023-08-31T10:22:54;2.38;;;2.03;;
48685;SDS011;34485;51.536;3.816;2023-08-31T10:25:22;3.50;;;2.07;;
48685;SDS011;34485;51.536;3.816;2023-08-31T10:27:48;3.55;;;1.73;;
48685;SDS011;34485;51.536;3.816;2023-08-31T10:30:24;6.70;;;2.35;;
48685;SDS011;34485;51.536;3.816;2023-08-31T10:35:40;1.40;;;1.30;;
48685;SDS011;34485;51.536;3.816;2023-08-31T10:38:16;4.50;;;2.17;;
48685;SDS011;34485;51.536;3.816;2023-08-31T10:48:54;7.28;;;2.20;;
48685;SDS011;34485;51.536;3.816;2023-08-31T10:51:28;3.87;;;2.70;;
48685;SDS011;34485;51.536;3.816;2023-08-31T10:59:22;4.32;;;2.33;;
48685;SDS011;34485;51.536;3.816;2023-08-31T11:04:27;3.73;;;2.20;;
48685;SDS011;34485;51.536;3.816;2023-08-31T11:10:15;6.18;;;2.95;;
48685;SDS011;34485;51.536;3.816;2023-08-31T11:12:42;5.25;;;2.65;;
48685;SDS011;34485;51.536;3.816;2023-08-31T11:15:13;4.53;;;2.60;;
48685;SDS011;34485;51.536;3.816;2023-08-31T11:17:41;4.23;;;2.50;;
48685;SDS011;34485;51.536;3.816;2023-08-31T11:20:08;3.72;;;2.17;;
48685;SDS011;34485;51.536;3.816;2023-08-31T11:22:38;4.25;;;2.55;;
48685;SDS011;34485;51.536;3.816;2023-08-31T11:25:05;3.67;;;2.10;;
48685;SDS011;34485;51.536;3.816;2023-08-31T11:27:31;4.60;;;2.30;;
48685;SDS011;34485;51.536;3.816;2023-08-31T11:29:57;3.70;;;2.40;;
48685;SDS011;34485;51.536;3.816;2023-08-31T11:32:23;3.77;;;2.40;;
48685;SDS011;34485;51.536;3.816;2023-08-31T11:34:49;4.95;;;2.58;;
48685;SDS011;34485;51.536;3.816;2023-08-31T11:37:15;2.70;;;2.30;;
48685;SDS011;34485;51.536;3.816;2023-08-31T11:39:42;3.13;;;2.20;;
48685;SDS011;34485;51.536;3.816;2023-08-31T11:42:17;3.83;;;2.30;;
48685;SDS011;34485;51.536;3.816;2023-08-31T11:44:48;4.00;;;2.65;;
48685;SDS011;34485;51.536;3.816;2023-08-31T11:47:16;4.03;;;2.40;;
48685;SDS011;34485;51.536;3.816;2023-08-31T11:49:42;4.38;;;2.45;;
48685;SDS011;34485;51.536;3.816;2023-08-31T11:52:12;4.40;;;2.17;;
48685;SDS011;34485;51.536;3.816;2023-08-31T11:54:38;2.70;;;2.00;;
48685;SDS011;34485;51.536;3.816;2023-08-31T11:57:11;4.18;;;2.22;;
48685;SDS011;34485;51.536;3.816;2023-08-31T11:59:38;6.70;;;2.20;;
48685;SDS011;34485;51.536;3.816;2023-08-31T12:02:07;3.10;;;2.35;;
48685;SDS011;34485;51.536;3.816;2023-08-31T12:04:33;4.13;;;2.35;;
48685;SDS011;34485;51.536;3.816;2023-08-31T12:07:09;3.17;;;2.00;;
48685;SDS011;34485;51.536;3.816;2023-08-31T12:09:36;3.53;;;2.15;;
48685;SDS011;34485;51.536;3.816;2023-08-31T12:12:02;3.80;;;2.22;;
48685;SDS011;34485;51.536;3.816;2023-08-31T12:14:30;5.30;;;2.15;;
48685;SDS011;34485;51.536;3.816;2023-08-31T12:17:03;3.55;;;2.30;;
48685;SDS011;34485;51.536;3.816;2023-08-31T12:19:30;2.87;;;2.30;;
48685;SDS011;34485;51.536;3.816;2023-08-31T12:21:56;4.20;;;2.05;;
48685;SDS011;34485;51.536;3.816;2023-08-31T12:24:23;2.40;;;2.03;;
48685;SDS011;34485;51.536;3.816;2023-08-31T12:26:49;3.05;;;1.80;;
48685;SDS011;34485;51.536;3.816;2023-08-31T12:29:15;2.22;;;2.03;;
48685;SDS011;34485;51.536;3.816;2023-08-31T12:31:41;3.23;;;2.30;;
48685;SDS011;34485;51.536;3.816;2023-08-31T12:34:08;4.60;;;2.40;;
48685;SDS011;34485;51.536;3.816;2023-08-31T12:36:35;3.97;;;2.10;;
48685;SDS011;34485;51.536;3.816;2023-08-31T12:39:06;5.80;;;2.08;;
48685;SDS011;34485;51.536;3.816;2023-08-31T12:41:39;2.15;;;1.95;;
48685;SDS011;34485;51.536;3.816;2023-08-31T12:44:08;2.83;;;2.27;;
48685;SDS011;34485;51.536;3.816;2023-08-31T12:46:33;2.72;;;2.00;;
48685;SDS011;34485;51.536;3.816;2023-08-31T12:49:00;3.47;;;2.40;;
48685;SDS011;34485;51.536;3.816;2023-08-31T12:51:26;4.37;;;2.23;;
48685;SDS011;34485;51.536;3.816;2023-08-31T12:53:53;2.15;;;2.05;;
48685;SDS011;34485;51.536;3.816;2023-08-31T12:56:19;2.60;;;2.00;;
48685;SDS011;34485;51.536;3.816;2023-08-31T12:58:48;2.50;;;1.90;;
48685;SDS011;34485;51.536;3.816;2023-08-31T13:01:14;3.10;;;2.08;;
48685;SDS011;34485;51.536;3.816;2023-08-31T13:03:40;2.67;;;2.20;;
48685;SDS011;34485;51.536;3.816;2023-08-31T13:06:06;3.60;;;2.10;;
48685;SDS011;34485;51.536;3.816;2023-08-31T13:08:31;4.80;;;2.07;;
48685;SDS011;34485;51.536;3.816;2023-08-31T13:10:57;2.35;;;1.98;;
48685;SDS011;34485;51.536;3.816;2023-08-31T13:13:22;2.60;;;2.30;;
48685;SDS011;34485;51.536;3.816;2023-08-31T13:15:48;3.97;;;2.40;;
48685;SDS011;34485;51.536;3.816;2023-08-31T13:18:14;4.43;;;2.27;;
48685;SDS011;34485;51.536;3.816;2023-08-31T13:20:40;2.60;;;2.40;;
48685;SDS011;34485;51.536;3.816;2023-08-31T13:23:06;4.90;;;2.00;;
48685;SDS011;34485;51.536;3.816;2023-08-31T13:25:32;2.60;;;2.20;;
48685;SDS011;34485;51.536;3.816;2023-08-31T13:27:58;3.38;;;2.42;;
48685;SDS011;34485;51.536;3.816;2023-08-31T13:30:23;6.23;;;3.00;;
48685;SDS011;34485;51.536;3.816;2023-08-31T13:32:49;2.17;;;1.95;;
48685;SDS011;34485;51.536;3.816;2023-08-31T13:35:15;5.47;;;2.40;;
48685;SDS011;34485;51.536;3.816;2023-08-31T13:37:41;9.33;;;2.70;;
48685;SDS011;34485;51.536;3.816;2023-08-31T13:40:07;3.75;;;2.30;;
48685;SDS011;34485;51.536;3.816;2023-08-31T13:42:34;3.55;;;2.28;;
48685;SDS011;34485;51.536;3.816;2023-08-31T13:45:03;4.45;;;2.58;;
48685;SDS011;34485;51.536;3.816;2023-08-31T13:47:30;8.35;;;2.80;;
48685;SDS011;34485;51.536;3.816;2023-08-31T13:49:56;6.60;;;3.33;;
48685;SDS011;34485;51.536;3.816;2023-08-31T13:52:22;8.23;;;2.70;;
48685;SDS011;34485;51.536;3.816;2023-08-31T13:54:48;5.43;;;2.50;;
48685;SDS011;34485;51.536;3.816;2023-08-31T13:57:13;6.30;;;2.63;;
48685;SDS011;34485;51.536;3.816;2023-08-31T13:59:42;2.63;;;2.40;;
48685;SDS011;34485;51.536;3.816;2023-08-31T14:02:08;3.00;;;2.67;;
48685;SDS011;34485;51.536;3.816;2023-08-31T14:04:34;4.55;;;2.65;;
48685;SDS011;34485;51.536;3.816;2023-08-31T14:07:00;2.33;;;2.13;;
48685;SDS011;34485;51.536;3.816;2023-08-31T14:09:26;6.18;;;2.70;;
48685;SDS011;34485;51.536;3.816;2023-08-31T14:11:52;3.92;;;2.20;;
48685;SDS011;34485;51.536;3.816;2023-08-31T14:14:19;3.80;;;2.58;;
48685;SDS011;34485;51.536;3.816;2023-08-31T14:16:46;6.27;;;2.90;;
48685;SDS011;34485;51.536;3.816;2023-08-31T14:19:12;9.68;;;2.60;;
48685;SDS011;34485;51.536;3.816;2023-08-31T14:21:38;6.07;;;2.90;;
48685;SDS011;34485;51.536;3.816;2023-08-31T14:24:03;4.32;;;2.90;;
48685;SDS011;34485;51.536;3.816;2023-08-31T14:26:29;5.03;;;2.83;;
48685;SDS011;34485;51.536;3.816;2023-08-31T14:28:55;5.57;;;2.60;;
48685;SDS011;34485;51.536;3.816;2023-08-31T14:31:21;6.97;;;3.20;;
48685;SDS011;34485;51.536;3.816;2023-08-31T14:33:47;4.67;;;2.90;;
48685;SDS011;34485;51.536;3.816;2023-08-31T14:36:14;3.35;;;2.55;;
48685;SDS011;34485;51.536;3.816;2023-08-31T14:38:40;6.72;;;3.25;;
48685;SDS011;34485;51.536;3.816;2023-08-31T14:41:06;9.70;;;2.97;;
48685;SDS011;34485;51.536;3.816;2023-08-31T14:43:32;3.23;;;2.57;;
48685;SDS011;34485;51.536;3.816;2023-08-31T14:45:59;4.80;;;3.00;;
48685;SDS011;34485;51.536;3.816;2023-08-31T14:48:26;4.93;;;2.53;;
48685;SDS011;34485;51.536;3.816;2023-08-31T14:50:52;3.03;;;2.73;;
48685;SDS011;34485;51.536;3.816;2023-08-31T14:53:18;5.97;;;2.80;;
48685;SDS011;34485;51.536;3.816;2023-08-31T14:55:50;5.57;;;3.00;;
48685;SDS011;34485;51.536;3.816;2023-08-31T14:58:16;4.80;;;2.80;;
48685;SDS011;34485;51.536;3.816;2023-08-31T15:00:41;4.22;;;2.83;;
48685;SDS011;34485;51.536;3.816;2023-08-31T15:03:07;2.23;;;2.10;;
48685;SDS011;34485;51.536;3.816;2023-08-31T15:05:32;6.50;;;2.70;;
48685;SDS011;34485;51.536;3.816;2023-08-31T15:08:00;5.72;;;2.67;;
48685;SDS011;34485;51.536;3.816;2023-08-31T15:10:28;3.90;;;2.92;;
48685;SDS011;34485;51.536;3.816;2023-08-31T15:12:54;4.10;;;2.65;;